St Solene — FVDG — position and weather

sailwx.info

Track history (hours):
 
Tides and Currents Weather Stations Pressure Air Temp Water Temp Dewpoint Dewpoint Depression Visibility Wind Speed Wind Dir Waves Ship Positions

St Solene

Last reported at 2015-Aug-03 17:31 UTC. Time now 2015-Aug-03 19:13 UTC.
Position N 42°32' E 009°34'.

Length 104 m; draft 6.3 m.

Type: Tanker. MMSI: 226302000.

Date/timePositionNaut miles runAvg speedWind from/ knotsBaromVisibWave heightAir tempDewpointWater temp
2015-Aug-03 17:31N 42°32' E 009°34'0 0.0
2015-Aug-03 16:28N 42°32' E 009°34'0 0.0
2015-Aug-03 15:16N 42°32' E 009°34'0 0.0
2015-Aug-03 14:31N 42°32' E 009°34'0 0.0
2015-Aug-03 13:33N 42°32' E 009°34'4 3.6
2015-Aug-03 12:33N 42°33' E 009°39'9 9.4
2015-Aug-03 11:33N 42°42' E 009°40'2210.9
2015-Aug-03 09:33N 43°04' E 009°35'8 8.4
2015-Aug-03 08:34N 43°09' E 009°26'1110.8
2015-Aug-03 07:32N 43°04' E 009°13'130 3.5
2015-Aug-01 18:15N 42°36' E 006°19'1012.2
2015-Aug-01 17:25N 42°41' E 006°07'1412.0
2015-Aug-01 16:13N 42°47' E 005°50'811.7
2015-Aug-01 15:33N 42°51' E 005°41'1211.7
2015-Aug-01 14:33N 42°57' E 005°27'1212.0
2015-Aug-01 13:33N 43°02' E 005°13'1211.5
2015-Aug-01 12:33N 43°11' E 005°02'1111.5
2015-Aug-01 11:33N 43°22' E 004°58'5 4.6
2015-Aug-01 10:33N 43°26' E 004°54'0 0.0
2015-Aug-01 09:33N 43°26' E 004°54'0 0.0
2015-Aug-01 08:33N 43°26' E 004°54'0 0.0
2015-Aug-01 07:33N 43°26' E 004°54'0 0.0
2015-Aug-01 06:33N 43°26' E 004°54'0 0.0
2015-Aug-01 05:33N 43°26' E 004°54'0 0.0
2015-Aug-01 04:33N 43°26' E 004°54'0 0.0
2015-Aug-01 03:27N 43°26' E 004°54'0 0.0
2015-Aug-01 02:33N 43°26' E 004°54'0 0.0
2015-Aug-01 01:33N 43°26' E 004°54'0 0.0
2015-Aug-01 00:33N 43°26' E 004°54'0 0.0
2015-Jul-31 23:33N 43°26' E 004°54'0 0.0
2015-Jul-31 22:33N 43°26' E 004°54'0 0.0
2015-Jul-31 21:33N 43°26' E 004°54'0 0.0
2015-Jul-31 20:33N 43°26' E 004°54'0 0.0
2015-Jul-31 19:33N 43°26' E 004°54'0 0.0
2015-Jul-31 18:33N 43°26' E 004°54'0 0.0
2015-Jul-31 17:27N 43°26' E 004°54'0 0.0
2015-Jul-31 16:33N 43°26' E 004°54'0 0.0
2015-Jul-31 15:33N 43°26' E 004°54'4 4.3
2015-Jul-31 14:33N 43°23' E 004°59'1 0.8
2015-Jul-31 13:31N 43°24' E 004°60'0 0.0
2015-Jul-31 12:31N 43°24' E 004°60'0 0.0
2015-Jul-31 11:31N 43°24' E 004°60'0 0.0
2015-Jul-31 10:31N 43°24' E 004°60'0 0.0
2015-Jul-31 09:28N 43°24' E 004°60'0 0.0
2015-Jul-31 08:31N 43°24' E 004°60'0 0.0
2015-Jul-31 07:31N 43°24' E 004°60'0 0.0
2015-Jul-31 06:31N 43°24' E 004°60'0 0.0
2015-Jul-31 05:31N 43°24' E 004°60'0 0.0
2015-Jul-31 04:31N 43°24' E 004°60'0 0.0
2015-Jul-31 03:31N 43°24' E 004°60'0 0.0
2015-Jul-31 02:31N 43°24' E 004°60'0 0.0
2015-Jul-31 01:31N 43°24' E 004°60'0 0.0
2015-Jul-31 00:31N 43°24' E 004°60'0 0.0
2015-Jul-30 23:31N 43°24' E 004°60'0 0.0
2015-Jul-30 22:31N 43°24' E 004°60'0 0.0
2015-Jul-30 21:31N 43°24' E 004°60'0 0.0
2015-Jul-30 20:31N 43°24' E 004°60'0 0.0
2015-Jul-30 19:31N 43°24' E 004°60'0 0.0
2015-Jul-30 18:31N 43°24' E 004°60'0 0.0
2015-Jul-30 17:31N 43°24' E 004°60'0 0.0
2015-Jul-30 16:31N 43°24' E 004°60'0 0.0
2015-Jul-30 15:31N 43°24' E 004°60'0 0.0
2015-Jul-30 14:33N 43°24' E 004°60'3 3.1
2015-Jul-30 13:33N 43°24' E 004°55'0 0.1
2015-Jul-30 12:31N 43°24' E 004°55'0 0.0
2015-Jul-30 11:31N 43°24' E 004°55'0 0.0
2015-Jul-30 10:31N 43°24' E 004°55'0 0.0
2015-Jul-30 09:31N 43°24' E 004°55'0 0.0
2015-Jul-30 08:31N 43°24' E 004°55'0 0.0
2015-Jul-30 07:31N 43°24' E 004°55'0 0.0
2015-Jul-30 06:31N 43°24' E 004°56'0 0.0
2015-Jul-30 05:31N 43°24' E 004°55'0 0.0
2015-Jul-30 04:31N 43°24' E 004°55'0 0.0
2015-Jul-30 03:31N 43°24' E 004°55'0 0.0
2015-Jul-30 02:31N 43°24' E 004°55'0 0.0
2015-Jul-30 01:31N 43°24' E 004°55'0 0.0
2015-Jul-30 00:31N 43°24' E 004°55'0 0.0
2015-Jul-29 23:31N 43°24' E 004°56'0 0.0
2015-Jul-29 22:31N 43°24' E 004°55'0 0.0
2015-Jul-29 21:31N 43°24' E 004°56'0 0.0
2015-Jul-29 20:31N 43°24' E 004°55'0 0.0
2015-Jul-29 19:31N 43°24' E 004°55'0 0.0
2015-Jul-29 18:31N 43°24' E 004°56'0 0.1
2015-Jul-29 17:31N 43°24' E 004°56'0 0.0
2015-Jul-29 16:31N 43°24' E 004°56'0 0.0
2015-Jul-29 15:31N 43°24' E 004°56'0 0.0
2015-Jul-29 14:31N 43°24' E 004°56'0 0.0
2015-Jul-29 13:31N 43°24' E 004°56'0 0.0
2015-Jul-29 12:31N 43°24' E 004°56'0 0.0
2015-Jul-29 11:31N 43°24' E 004°56'0 0.0
2015-Jul-29 10:31N 43°24' E 004°56'0 0.0
2015-Jul-29 09:31N 43°24' E 004°56'0 0.0
2015-Jul-29 08:31N 43°24' E 004°56'0 0.0
2015-Jul-29 07:31N 43°24' E 004°56'0 0.0
2015-Jul-29 06:31N 43°24' E 004°56'0 0.0
2015-Jul-29 05:31N 43°24' E 004°56'0 0.0
2015-Jul-29 04:31N 43°24' E 004°56'0 0.0
2015-Jul-29 03:31N 43°24' E 004°56'0 0.0
2015-Jul-29 02:31N 43°24' E 004°56'0 0.0
2015-Jul-29 01:31N 43°24' E 004°56'0 0.0
2015-Jul-29 00:31N 43°24' E 004°56'0 0.0
2015-Jul-28 23:31N 43°24' E 004°56'0 0.0
2015-Jul-28 22:31N 43°24' E 004°56'0 0.0
2015-Jul-28 21:31N 43°24' E 004°56'0 0.0
2015-Jul-28 20:31N 43°24' E 004°56'0 0.0
2015-Jul-28 19:31N 43°24' E 004°56'0 0.0
2015-Jul-28 18:31N 43°24' E 004°56'0 0.0
2015-Jul-28 17:31N 43°24' E 004°56'0 0.0
2015-Jul-28 16:28N 43°24' E 004°56'0 0.0
2015-Jul-28 15:31N 43°24' E 004°56'0 0.0
2015-Jul-28 14:31N 43°24' E 004°56'0 0.0
2015-Jul-28 13:31N 43°24' E 004°56'0 0.0
2015-Jul-28 12:31N 43°24' E 004°56'0 0.0
2015-Jul-28 11:31N 43°24' E 004°56'0 0.0
2015-Jul-28 10:31N 43°24' E 004°56'0 0.0
2015-Jul-28 09:31N 43°24' E 004°56'0 0.0
2015-Jul-28 08:31N 43°24' E 004°56'0 0.0
2015-Jul-28 07:31N 43°24' E 004°56'0 0.0
2015-Jul-28 06:31N 43°24' E 004°56'0 0.0
2015-Jul-28 05:31N 43°24' E 004°56'0 0.0
2015-Jul-28 04:31N 43°24' E 004°56'0 0.0
2015-Jul-28 03:31N 43°24' E 004°56'0 0.0
2015-Jul-28 02:31N 43°24' E 004°56'0 0.0
2015-Jul-28 01:31N 43°24' E 004°56'0 0.0
2015-Jul-28 00:31N 43°24' E 004°56'0 0.0
2015-Jul-27 23:31N 43°24' E 004°56'0 0.0
2015-Jul-27 22:31N 43°24' E 004°56'0 0.0
2015-Jul-27 21:31N 43°24' E 004°56'0 0.0
2015-Jul-27 20:31N 43°24' E 004°56'0 0.0
2015-Jul-27 19:34N 43°24' E 004°56'0 0.1
2015-Jul-27 18:31N 43°24' E 004°56'0 0.0
2015-Jul-27 17:31N 43°24' E 004°56'0 0.0
2015-Jul-27 16:31N 43°24' E 004°56'0 0.1
2015-Jul-27 15:33N 43°24' E 004°55'7 7.4
2015-Jul-27 14:33N 43°18' E 004°60'8 8.4
2015-Jul-27 13:33N 43°11' E 005°07'10 9.6
2015-Jul-27 12:33N 43°08' E 005°19'10 9.9
2015-Jul-27 11:33N 43°05' E 005°32'4010.0
2015-Jul-27 07:32N 42°57' E 006°26'1010.3
2015-Jul-27 06:32N 42°58' E 006°40'1110.7
2015-Jul-27 05:33N 42°58' E 006°55'1010.4
2015-Jul-27 04:33N 42°59' E 007°09'1010.2
2015-Jul-27 03:33N 43°00' E 007°23'  
Track history (hours):
 
Tides and Currents Weather Stations Pressure Air Temp Water Temp Dewpoint Dewpoint Depression Visibility Wind Speed Wind Dir Waves Ship Positions

St Solene

Last reported at 2015-Aug-03 17:31 UTC. Time now 2015-Aug-03 19:13 UTC.
Position N 42°32' E 009°34'.

Length 104 m; draft 6.3 m.

Type: Tanker. MMSI: 226302000.

Date/timePositionNaut miles runAvg speedWind from/ knotsBaromVisibWave heightAir tempDewpointWater temp
2015-Aug-03 17:31N 42°32' E 009°34'0 0.0
2015-Aug-03 16:28N 42°32' E 009°34'0 0.0
2015-Aug-03 15:16N 42°32' E 009°34'0 0.0
2015-Aug-03 14:31N 42°32' E 009°34'0 0.0
2015-Aug-03 13:33N 42°32' E 009°34'4 3.6
2015-Aug-03 12:33N 42°33' E 009°39'9 9.4
2015-Aug-03 11:33N 42°42' E 009°40'2210.9
2015-Aug-03 09:33N 43°04' E 009°35'8 8.4
2015-Aug-03 08:34N 43°09' E 009°26'1110.8
2015-Aug-03 07:32N 43°04' E 009°13'130 3.5
2015-Aug-01 18:15N 42°36' E 006°19'1012.2
2015-Aug-01 17:25N 42°41' E 006°07'1412.0
2015-Aug-01 16:13N 42°47' E 005°50'811.7
2015-Aug-01 15:33N 42°51' E 005°41'1211.7
2015-Aug-01 14:33N 42°57' E 005°27'1212.0
2015-Aug-01 13:33N 43°02' E 005°13'1211.5
2015-Aug-01 12:33N 43°11' E 005°02'1111.5
2015-Aug-01 11:33N 43°22' E 004°58'5 4.6
2015-Aug-01 10:33N 43°26' E 004°54'0 0.0
2015-Aug-01 09:33N 43°26' E 004°54'0 0.0
2015-Aug-01 08:33N 43°26' E 004°54'0 0.0
2015-Aug-01 07:33N 43°26' E 004°54'0 0.0
2015-Aug-01 06:33N 43°26' E 004°54'0 0.0
2015-Aug-01 05:33N 43°26' E 004°54'0 0.0
2015-Aug-01 04:33N 43°26' E 004°54'0 0.0
2015-Aug-01 03:27N 43°26' E 004°54'0 0.0
2015-Aug-01 02:33N 43°26' E 004°54'0 0.0
2015-Aug-01 01:33N 43°26' E 004°54'0 0.0
2015-Aug-01 00:33N 43°26' E 004°54'0 0.0
2015-Jul-31 23:33N 43°26' E 004°54'0 0.0
2015-Jul-31 22:33N 43°26' E 004°54'0 0.0
2015-Jul-31 21:33N 43°26' E 004°54'0 0.0
2015-Jul-31 20:33N 43°26' E 004°54'0 0.0
2015-Jul-31 19:33N 43°26' E 004°54'0 0.0
2015-Jul-31 18:33N 43°26' E 004°54'0 0.0
2015-Jul-31 17:27N 43°26' E 004°54'0 0.0
2015-Jul-31 16:33N 43°26' E 004°54'0 0.0
2015-Jul-31 15:33N 43°26' E 004°54'4 4.3
2015-Jul-31 14:33N 43°23' E 004°59'1 0.8
2015-Jul-31 13:31N 43°24' E 004°60'0 0.0
2015-Jul-31 12:31N 43°24' E 004°60'0 0.0
2015-Jul-31 11:31N 43°24' E 004°60'0 0.0
2015-Jul-31 10:31N 43°24' E 004°60'0 0.0
2015-Jul-31 09:28N 43°24' E 004°60'0 0.0
2015-Jul-31 08:31N 43°24' E 004°60'0 0.0
2015-Jul-31 07:31N 43°24' E 004°60'0 0.0
2015-Jul-31 06:31N 43°24' E 004°60'0 0.0
2015-Jul-31 05:31N 43°24' E 004°60'0 0.0
2015-Jul-31 04:31N 43°24' E 004°60'0 0.0
2015-Jul-31 03:31N 43°24' E 004°60'0 0.0
2015-Jul-31 02:31N 43°24' E 004°60'0 0.0
2015-Jul-31 01:31N 43°24' E 004°60'0 0.0
2015-Jul-31 00:31N 43°24' E 004°60'0 0.0
2015-Jul-30 23:31N 43°24' E 004°60'0 0.0
2015-Jul-30 22:31N 43°24' E 004°60'0 0.0
2015-Jul-30 21:31N 43°24' E 004°60'0 0.0
2015-Jul-30 20:31N 43°24' E 004°60'0 0.0
2015-Jul-30 19:31N 43°24' E 004°60'0 0.0
2015-Jul-30 18:31N 43°24' E 004°60'0 0.0
2015-Jul-30 17:31N 43°24' E 004°60'0 0.0
2015-Jul-30 16:31N 43°24' E 004°60'0 0.0
2015-Jul-30 15:31N 43°24' E 004°60'0 0.0
2015-Jul-30 14:33N 43°24' E 004°60'3 3.1
2015-Jul-30 13:33N 43°24' E 004°55'0 0.1
2015-Jul-30 12:31N 43°24' E 004°55'0 0.0
2015-Jul-30 11:31N 43°24' E 004°55'0 0.0
2015-Jul-30 10:31N 43°24' E 004°55'0 0.0
2015-Jul-30 09:31N 43°24' E 004°55'0 0.0
2015-Jul-30 08:31N 43°24' E 004°55'0 0.0
2015-Jul-30 07:31N 43°24' E 004°55'0 0.0
2015-Jul-30 06:31N 43°24' E 004°56'0 0.0
2015-Jul-30 05:31N 43°24' E 004°55'0 0.0
2015-Jul-30 04:31N 43°24' E 004°55'0 0.0
2015-Jul-30 03:31N 43°24' E 004°55'0 0.0
2015-Jul-30 02:31N 43°24' E 004°55'0 0.0
2015-Jul-30 01:31N 43°24' E 004°55'0 0.0
2015-Jul-30 00:31N 43°24' E 004°55'0 0.0
2015-Jul-29 23:31N 43°24' E 004°56'0 0.0
2015-Jul-29 22:31N 43°24' E 004°55'0 0.0
2015-Jul-29 21:31N 43°24' E 004°56'0 0.0
2015-Jul-29 20:31N 43°24' E 004°55'0 0.0
2015-Jul-29 19:31N 43°24' E 004°55'0 0.0
2015-Jul-29 18:31N 43°24' E 004°56'0 0.1
2015-Jul-29 17:31N 43°24' E 004°56'0 0.0
2015-Jul-29 16:31N 43°24' E 004°56'0 0.0
2015-Jul-29 15:31N 43°24' E 004°56'0 0.0
2015-Jul-29 14:31N 43°24' E 004°56'0 0.0
2015-Jul-29 13:31N 43°24' E 004°56'0 0.0
2015-Jul-29 12:31N 43°24' E 004°56'0 0.0
2015-Jul-29 11:31N 43°24' E 004°56'0 0.0
2015-Jul-29 10:31N 43°24' E 004°56'0 0.0
2015-Jul-29 09:31N 43°24' E 004°56'0 0.0
2015-Jul-29 08:31N 43°24' E 004°56'0 0.0
2015-Jul-29 07:31N 43°24' E 004°56'0 0.0
2015-Jul-29 06:31N 43°24' E 004°56'0 0.0
2015-Jul-29 05:31N 43°24' E 004°56'0 0.0
2015-Jul-29 04:31N 43°24' E 004°56'0 0.0
2015-Jul-29 03:31N 43°24' E 004°56'0 0.0
2015-Jul-29 02:31N 43°24' E 004°56'0 0.0
2015-Jul-29 01:31N 43°24' E 004°56'0 0.0
2015-Jul-29 00:31N 43°24' E 004°56'0 0.0
2015-Jul-28 23:31N 43°24' E 004°56'0 0.0
2015-Jul-28 22:31N 43°24' E 004°56'0 0.0
2015-Jul-28 21:31N 43°24' E 004°56'0 0.0
2015-Jul-28 20:31N 43°24' E 004°56'0 0.0
2015-Jul-28 19:31N 43°24' E 004°56'0 0.0
2015-Jul-28 18:31N 43°24' E 004°56'0 0.0
2015-Jul-28 17:31N 43°24' E 004°56'0 0.0
2015-Jul-28 16:28N 43°24' E 004°56'0 0.0
2015-Jul-28 15:31N 43°24' E 004°56'0 0.0
2015-Jul-28 14:31N 43°24' E 004°56'0 0.0
2015-Jul-28 13:31N 43°24' E 004°56'0 0.0
2015-Jul-28 12:31N 43°24' E 004°56'0 0.0
2015-Jul-28 11:31N 43°24' E 004°56'0 0.0
2015-Jul-28 10:31N 43°24' E 004°56'0 0.0
2015-Jul-28 09:31N 43°24' E 004°56'0 0.0
2015-Jul-28 08:31N 43°24' E 004°56'0 0.0
2015-Jul-28 07:31N 43°24' E 004°56'0 0.0
2015-Jul-28 06:31N 43°24' E 004°56'0 0.0
2015-Jul-28 05:31N 43°24' E 004°56'0 0.0
2015-Jul-28 04:31N 43°24' E 004°56'0 0.0
2015-Jul-28 03:31N 43°24' E 004°56'0 0.0
2015-Jul-28 02:31N 43°24' E 004°56'0 0.0
2015-Jul-28 01:31N 43°24' E 004°56'0 0.0
2015-Jul-28 00:31N 43°24' E 004°56'0 0.0
2015-Jul-27 23:31N 43°24' E 004°56'0 0.0
2015-Jul-27 22:31N 43°24' E 004°56'0 0.0
2015-Jul-27 21:31N 43°24' E 004°56'0 0.0
2015-Jul-27 20:31N 43°24' E 004°56'0 0.0
2015-Jul-27 19:34N 43°24' E 004°56'0 0.1
2015-Jul-27 18:31N 43°24' E 004°56'0 0.0
2015-Jul-27 17:31N 43°24' E 004°56'0 0.0
2015-Jul-27 16:31N 43°24' E 004°56'0 0.1
2015-Jul-27 15:33N 43°24' E 004°55'7 7.4
2015-Jul-27 14:33N 43°18' E 004°60'8 8.4
2015-Jul-27 13:33N 43°11' E 005°07'10 9.6
2015-Jul-27 12:33N 43°08' E 005°19'10 9.9
2015-Jul-27 11:33N 43°05' E 005°32'4010.0
2015-Jul-27 07:32N 42°57' E 006°26'1010.3
2015-Jul-27 06:32N 42°58' E 006°40'1110.7
2015-Jul-27 05:33N 42°58' E 006°55'1010.4
2015-Jul-27 04:33N 42°59' E 007°09'1010.2
2015-Jul-27 03:33N 43°00' E 007°23'  

Dump ship's entire track history